Time;durP1;ratioP1;P1;durP2;ratioP2;P2;SDS_P1;SDS_P2;PMS_P1;PMS_P2;Temp;Humidity;BMP_temperature;BMP_pressure;BME280_temperature;BME280_humidity;BME280_pressure;Samples;Min_cycle;Max_cycle;Signal;HPM_P1;HPM_P2
2022/08/24 00:01:14;;;;;;;2.75;2.00;;;26.90;47.10;25.70;101304.00;;;;5083483;28;20486;-71
2022/08/24 00:04:00;;;;;;;2.67;1.95;;;26.80;47.00;25.70;101303.00;;;;5074923;28;20031;-71
2022/08/24 00:06:46;;;;;;;3.78;1.77;;;26.80;47.00;25.70;101307.00;;;;5083625;28;20587;-71
2022/08/24 00:09:32;;;;;;;3.67;1.75;;;26.90;47.10;25.70;101298.00;;;;5086365;28;20036;-71
2022/08/24 00:12:18;;;;;;;3.58;2.10;;;26.80;47.00;25.70;101298.00;;;;5067521;28;20043;-71
2022/08/24 00:15:07;;;;;;;4.68;2.28;;;26.90;47.10;25.70;101300.00;;;;5074352;28;20448;-71
2022/08/24 00:17:53;;;;;;;3.50;2.20;;;26.80;47.10;25.70;101311.00;;;;5068325;28;20044;-71
2022/08/24 00:20:39;;;;;;;2.80;1.88;;;26.80;47.10;25.70;101311.00;;;;5077354;28;20036;-71
2022/08/24 00:23:25;;;;;;;5.05;2.10;;;26.80;47.10;25.70;101311.00;;;;5060229;28;20075;-71
2022/08/24 00:26:11;;;;;;;2.25;1.80;;;26.80;47.10;25.70;101311.00;;;;5085332;28;20477;-71
2022/08/24 00:28:57;;;;;;;3.25;2.10;;;26.80;47.10;25.70;101321.00;;;;5084915;28;20039;-71
2022/08/24 00:31:43;;;;;;;1.83;1.73;;;26.80;47.10;25.70;101313.00;;;;5080311;28;20447;-71
2022/08/24 00:34:31;;;;;;;4.93;2.30;;;26.70;47.10;25.70;101316.00;;;;5083781;28;20039;-71
2022/08/24 00:37:17;;;;;;;2.63;1.90;;;26.90;47.30;25.70;101316.00;;;;5079142;28;20044;-71
2022/08/24 00:40:10;;;;;;;2.50;2.08;;;26.80;47.20;25.70;101313.00;;;;5086692;28;20051;-71
2022/08/24 00:43:02;;;;;;;3.80;1.92;;;26.80;47.30;25.70;101312.00;;;;5074723;28;20043;-71
2022/08/24 00:46:12;;;;;;;3.85;2.00;;;26.80;47.20;25.70;101315.00;;;;5074283;28;20482;-71
2022/08/24 00:49:06;;;;;;;3.30;2.05;;;26.80;47.30;25.70;101311.00;;;;5072258;28;20385;-71
2022/08/24 00:52:27;;;;;;;3.47;2.10;;;26.80;47.30;25.70;101316.00;;;;5072641;28;20040;-71
2022/08/24 00:55:20;;;;;;;3.22;2.45;;;26.80;47.30;25.70;101309.00;;;;5078616;28;20039;-71
2022/08/24 00:58:15;;;;;;;2.08;1.70;;;26.80;47.30;25.70;101316.00;;;;5071618;28;20477;-71
2022/08/24 01:01:03;;;;;;;3.60;1.90;;;26.80;47.30;25.70;101309.00;;;;5073937;28;20044;-71
2022/08/24 01:03:50;;;;;;;7.40;2.35;;;26.80;47.30;25.70;101312.00;;;;5072236;28;20051;-71
2022/08/24 01:06:36;;;;;;;2.30;2.10;;;26.80;47.40;25.70;101310.00;;;;5059305;28;20040;-71
2022/08/24 01:09:22;;;;;;;3.33;2.33;;;26.80;47.30;25.70;101310.00;;;;5060296;28;20270;-71
2022/08/24 01:12:08;;;;;;;3.38;2.15;;;26.80;47.40;25.70;101317.00;;;;5062558;28;20500;-71
2022/08/24 01:14:55;;;;;;;2.85;2.00;;;26.80;47.40;25.70;101304.00;;;;5091550;28;20888;-71
2022/08/24 01:20:51;;;;;;;2.83;2.10;;;26.80;47.40;25.70;101312.00;;;;5083480;28;20047;-71
2022/08/24 01:23:48;;;;;;;2.47;2.05;;;26.80;47.40;25.70;101313.00;;;;5075244;28;20119;-71
2022/08/24 01:26:42;;;;;;;2.95;2.22;;;26.80;47.40;25.70;101316.00;;;;5066561;28;20668;-71
2022/08/24 01:29:30;;;;;;;3.30;2.33;;;26.80;47.90;25.70;101315.00;;;;5061750;28;20028;-71
2022/08/24 01:32:19;;;;;;;3.40;2.30;;;26.80;47.40;25.70;101306.00;;;;5070327;28;20097;-71
2022/08/24 01:35:06;;;;;;;2.30;2.00;;;26.80;47.50;25.70;101309.00;;;;5073486;28;20032;-71
2022/08/24 01:37:53;;;;;;;2.35;2.15;;;26.80;47.40;25.70;101310.00;;;;5076581;28;20508;-71
2022/08/24 01:40:46;;;;;;;3.78;2.40;;;26.80;47.50;25.70;101306.00;;;;5074322;28;20472;-71
2022/08/24 01:43:32;;;;;;;3.47;2.30;;;26.70;47.40;25.70;101306.00;;;;5060470;28;20106;-71
2022/08/24 01:46:18;;;;;;;3.13;2.35;;;26.80;47.50;25.70;101307.00;;;;5082201;28;20036;-71
2022/08/24 01:49:04;;;;;;;3.28;2.25;;;26.80;47.50;25.70;101316.00;;;;5082980;28;20043;-71
2022/08/24 01:51:50;;;;;;;2.38;2.10;;;26.80;47.50;25.70;101308.00;;;;5057021;28;20047;-71
2022/08/24 01:54:37;;;;;;;2.50;2.05;;;26.80;47.50;25.70;101311.00;;;;5079148;28;20032;-71
2022/08/24 01:57:24;;;;;;;3.05;2.13;;;26.80;47.60;25.70;101315.00;;;;5086241;28;20058;-71
2022/08/24 02:00:13;;;;;;;2.33;2.13;;;26.70;47.50;25.70;101319.00;;;;5083428;28;20464;-71
2022/08/24 02:02:59;;;;;;;3.33;2.40;;;26.80;47.60;25.70;101321.00;;;;5075905;28;20054;-71
2022/08/24 02:05:45;;;;;;;2.78;2.47;;;26.80;47.60;25.70;101323.00;;;;5088170;28;20404;-71
2022/08/24 02:08:35;;;;;;;2.78;2.05;;;26.80;47.60;25.70;101315.00;;;;5082306;28;20039;-71
2022/08/24 02:11:21;;;;;;;2.60;2.22;;;26.80;47.60;25.70;101319.00;;;;5081064;28;20085;-71
2022/08/24 02:14:07;;;;;;;2.17;1.90;;;26.80;47.60;25.70;101316.00;;;;5079378;28;20040;-71
2022/08/24 02:16:53;;;;;;;3.55;2.17;;;26.80;47.60;25.70;101316.00;;;;5080940;28;20493;-71
2022/08/24 02:19:40;;;;;;;3.55;2.40;;;26.70;47.50;25.70;101321.00;;;;5085003;28;20093;-71
2022/08/24 02:22:26;;;;;;;3.92;2.22;;;26.70;47.60;25.70;101322.00;;;;5071899;28;20094;-71
2022/08/24 02:25:13;;;;;;;4.75;2.22;;;26.70;47.50;25.60;101324.00;;;;5092131;28;20050;-71
2022/08/24 02:27:59;;;;;;;4.07;2.65;;;26.70;47.50;25.70;101326.00;;;;5084453;28;20101;-71
2022/08/24 02:30:46;;;;;;;3.22;2.38;;;26.70;47.60;25.60;101328.00;;;;5086769;28;20040;-71
2022/08/24 02:33:35;;;;;;;6.32;2.00;;;26.70;47.70;25.60;101323.00;;;;5069620;28;20383;-71
2022/08/24 02:36:22;;;;;;;2.60;2.30;;;26.70;47.70;25.60;101323.00;;;;5074222;28;20130;-71
2022/08/24 02:39:08;;;;;;;2.65;1.95;;;26.80;47.90;25.60;101325.00;;;;5087017;28;20120;-71
2022/08/24 02:41:54;;;;;;;2.30;2.10;;;26.70;47.90;25.60;101324.00;;;;5087215;28;20044;-71
2022/08/24 02:44:40;;;;;;;2.22;1.98;;;26.70;47.80;25.60;101321.00;;;;5077304;28;20040;-71
2022/08/24 02:47:27;;;;;;;2.15;1.98;;;26.70;48.00;25.60;101325.00;;;;5071311;28;20040;-71
2022/08/24 02:50:14;;;;;;;2.50;2.15;;;26.80;48.20;25.60;101322.00;;;;5072304;28;20124;-71
2022/08/24 02:53:00;;;;;;;2.50;2.10;;;26.70;48.10;25.60;101324.00;;;;5074390;28;20121;-71
2022/08/24 02:55:46;;;;;;;3.35;2.13;;;26.70;48.10;25.60;101323.00;;;;5085661;28;20486;-71
2022/08/24 02:58:32;;;;;;;2.42;1.98;;;26.60;48.00;25.60;101318.00;;;;5093779;28;20062;-71
2022/08/24 03:01:18;;;;;;;2.80;2.03;;;26.70;48.10;25.60;101323.00;;;;5083993;28;20043;-71
2022/08/24 03:04:05;;;;;;;2.28;1.95;;;26.70;48.10;25.60;101333.00;;;;5084734;28;20334;-71
2022/08/24 03:06:51;;;;;;;2.53;2.00;;;26.70;48.10;25.60;101324.00;;;;5074023;28;20039;-71
2022/08/24 03:09:37;;;;;;;2.33;2.13;;;26.60;48.10;25.60;101332.00;;;;5065178;28;20036;-71
2022/08/24 03:12:23;;;;;;;2.38;2.10;;;26.60;48.10;25.60;101333.00;;;;5082452;28;20046;-71
2022/08/24 03:15:10;;;;;;;2.40;2.20;;;26.60;48.10;25.60;101339.00;;;;5081937;28;20059;-71
2022/08/24 03:17:56;;;;;;;3.80;3.07;;;26.50;48.00;25.60;101341.00;;;;5081366;28;20040;-72
2022/08/24 03:20:42;;;;;;;2.30;2.10;;;26.60;48.10;25.60;101337.00;;;;5072187;28;20329;-71
2022/08/24 03:23:29;;;;;;;2.80;2.10;;;26.60;48.10;25.60;101332.00;;;;5075305;28;20494;-71
2022/08/24 03:26:15;;;;;;;2.83;2.45;;;26.60;48.10;25.60;101339.00;;;;5075307;28;20036;-71
2022/08/24 03:29:01;;;;;;;2.47;2.10;;;26.60;48.10;25.60;101340.00;;;;5082366;28;20539;-71
2022/08/24 03:31:47;;;;;;;3.15;2.00;;;26.60;48.20;25.60;101343.00;;;;5080830;28;20047;-71
2022/08/24 03:34:33;;;;;;;2.83;2.08;;;26.60;48.20;25.60;101337.00;;;;5090595;28;20040;-71
2022/08/24 03:37:19;;;;;;;3.03;2.00;;;26.60;48.20;25.60;101339.00;;;;5076233;28;20046;-71
2022/08/24 03:40:07;;;;;;;2.40;2.20;;;26.60;48.20;25.60;101343.00;;;;5094957;28;20036;-71
2022/08/24 03:42:53;;;;;;;2.65;2.30;;;26.60;48.20;25.60;101336.00;;;;5072930;28;20071;-71
2022/08/24 03:45:42;;;;;;;3.45;2.10;;;26.60;48.20;25.60;101336.00;;;;5073223;28;20068;-71
2022/08/24 03:48:29;;;;;;;3.63;2.20;;;26.60;48.20;25.50;101331.00;;;;5088073;28;20032;-71
2022/08/24 03:51:20;;;;;;;2.88;2.40;;;26.50;48.20;25.50;101337.00;;;;5071740;28;20031;-71
2022/08/24 03:54:07;;;;;;;2.83;2.47;;;26.50;48.20;25.50;101335.00;;;;5077857;28;20044;-71
2022/08/24 03:56:53;;;;;;;3.40;2.47;;;26.50;48.10;25.50;101337.00;;;;5069613;28;20052;-71
2022/08/24 03:59:40;;;;;;;2.45;1.90;;;26.50;48.10;25.50;101332.00;;;;5071396;28;20047;-71
2022/08/24 04:02:26;;;;;;;2.38;1.83;;;26.50;48.10;25.50;101344.00;;;;5080810;28;20429;-71
2022/08/24 04:05:12;;;;;;;2.50;2.30;;;26.50;48.10;25.50;101338.00;;;;5090642;28;20405;-71
2022/08/24 04:07:58;;;;;;;2.45;2.25;;;26.60;48.10;25.50;101341.00;;;;5087831;28;20047;-71
2022/08/24 04:10:44;;;;;;;3.63;1.80;;;26.50;48.10;25.50;101338.00;;;;5087399;28;20405;-71
2022/08/24 04:13:30;;;;;;;2.00;1.83;;;26.50;48.10;25.50;101342.00;;;;5070294;28;20036;-71
2022/08/24 04:16:18;;;;;;;3.78;2.05;;;26.50;48.10;25.50;101332.00;;;;5069127;28;20044;-71
2022/08/24 04:19:05;;;;;;;2.58;1.80;;;26.50;48.10;25.50;101336.00;;;;5068737;28;20383;-71
2022/08/24 04:21:51;;;;;;;2.50;2.30;;;26.50;48.20;25.50;101345.00;;;;5080166;28;20044;-71
2022/08/24 04:24:37;;;;;;;2.20;2.00;;;26.50;48.20;25.50;101341.00;;;;5086717;28;20473;-71
2022/08/24 04:27:23;;;;;;;2.28;2.08;;;26.40;48.10;25.50;101343.00;;;;5077065;28;20037;-71
2022/08/24 04:30:10;;;;;;;2.40;2.20;;;26.50;48.10;25.50;101346.00;;;;5083147;28;20036;-71
2022/08/24 04:32:56;;;;;;;2.40;2.10;;;26.50;48.10;25.50;101347.00;;;;5072546;28;20040;-71
2022/08/24 04:35:44;;;;;;;2.42;2.22;;;26.50;48.10;25.50;101347.00;;;;5065239;28;20043;-71
2022/08/24 04:38:30;;;;;;;2.22;2.03;;;26.40;48.00;25.50;101361.00;;;;5086315;28;20036;-71
2022/08/24 04:41:19;;;;;;;4.28;2.08;;;26.50;48.00;25.50;101356.00;;;;5084643;28;20043;-71
2022/08/24 04:44:05;;;;;;;2.95;1.90;;;26.50;48.00;25.50;101356.00;;;;5073709;28;20105;-71
2022/08/24 04:46:51;;;;;;;1.77;1.65;;;26.50;48.00;25.50;101362.00;;;;5084050;28;20047;-71
2022/08/24 04:49:37;;;;;;;2.10;1.90;;;26.50;47.90;25.50;101364.00;;;;5082825;28;20474;-71
2022/08/24 04:52:23;;;;;;;3.40;2.20;;;26.50;48.00;25.50;101368.00;;;;5069799;28;20048;-71
2022/08/24 04:55:09;;;;;;;3.38;2.05;;;26.50;48.00;25.50;101364.00;;;;5085821;28;20039;-71
2022/08/24 04:57:55;;;;;;;3.72;2.10;;;26.40;48.00;25.50;101368.00;;;;5058749;28;20044;-71
2022/08/24 05:00:42;;;;;;;1.85;1.70;;;26.40;48.00;25.50;101368.00;;;;5077686;28;20040;-71
2022/08/24 05:03:28;;;;;;;2.83;1.75;;;26.40;47.90;25.50;101375.00;;;;5077223;28;20049;-71
2022/08/24 05:06:15;;;;;;;2.15;1.95;;;26.40;47.90;25.40;101376.00;;;;5088929;28;20040;-71
2022/08/24 05:09:02;;;;;;;2.83;1.85;;;26.40;47.90;25.50;101391.00;;;;5076240;28;20558;-71
2022/08/24 05:11:48;;;;;;;2.88;2.28;;;26.30;47.80;25.40;101387.00;;;;5075082;28;20040;-71
2022/08/24 05:14:34;;;;;;;3.15;2.17;;;26.40;48.00;25.40;101389.00;;;;5083525;28;20071;-71
2022/08/24 05:17:20;;;;;;;2.17;2.00;;;26.40;47.90;25.40;101390.00;;;;5080044;28;20047;-71
2022/08/24 05:20:08;;;;;;;3.28;1.90;;;26.40;47.90;25.40;101383.00;;;;5090060;28;20480;-71
2022/08/24 05:22:54;;;;;;;2.45;2.20;;;26.30;47.80;25.40;101390.00;;;;5078716;28;20093;-71
2022/08/24 05:25:41;;;;;;;2.80;1.77;;;26.30;47.80;25.40;101398.00;;;;5063410;28;20410;-71
2022/08/24 05:28:27;;;;;;;2.53;2.13;;;26.30;47.80;25.40;101392.00;;;;5084505;28;20124;-71
2022/08/24 05:31:18;;;;;;;2.95;2.00;;;26.30;47.70;25.40;101391.00;;;;5084501;28;20032;-71
2022/08/24 05:34:04;;;;;;;2.00;1.77;;;26.40;47.90;25.40;101395.00;;;;5061141;28;20067;-71
2022/08/24 05:36:50;;;;;;;2.58;1.92;;;26.30;47.80;25.40;101399.00;;;;5082632;28;20056;-71
2022/08/24 05:39:37;;;;;;;2.72;2.17;;;26.30;47.80;25.40;101399.00;;;;5087343;28;20051;-71
2022/08/24 05:42:23;;;;;;;2.15;1.95;;;26.30;47.80;25.40;101396.00;;;;5080656;28;20056;-71
2022/08/24 05:45:11;;;;;;;2.67;1.73;;;26.30;47.70;25.40;101397.00;;;;5085208;28;20036;-71
2022/08/24 05:47:57;;;;;;;2.30;1.80;;;26.30;47.80;25.40;101407.00;;;;5071563;28;20039;-71
2022/08/24 05:50:44;;;;;;;4.32;1.90;;;26.30;47.70;25.40;101399.00;;;;5084502;28;20042;-71
2022/08/24 05:53:30;;;;;;;2.22;2.03;;;26.30;47.70;25.40;101403.00;;;;5067141;28;20032;-71
2022/08/24 05:56:17;;;;;;;2.58;1.98;;;26.30;47.80;25.40;101396.00;;;;5087523;28;20576;-71
2022/08/24 05:59:03;;;;;;;2.58;1.90;;;26.30;47.70;25.40;101408.00;;;;5071077;28;20851;-71
2022/08/24 06:01:49;;;;;;;2.13;1.80;;;26.30;47.70;25.40;101411.00;;;;5066646;28;20059;-71
2022/08/24 06:04:37;;;;;;;2.30;1.73;;;26.30;47.70;25.40;101410.00;;;;5084657;28;20043;-71
2022/08/24 06:07:23;;;;;;;4.22;1.90;;;26.30;47.70;25.40;101415.00;;;;5083634;28;20458;-71
2022/08/24 06:10:10;;;;;;;2.83;1.65;;;26.30;47.70;25.40;101418.00;;;;5083871;28;20039;-71
2022/08/24 06:12:56;;;;;;;2.17;1.95;;;26.30;47.70;25.40;101413.00;;;;5077307;28;20133;-71
2022/08/24 06:15:42;;;;;;;2.63;1.90;;;26.30;47.70;25.40;101411.00;;;;5085529;28;20123;-71
2022/08/24 06:18:29;;;;;;;5.03;2.20;;;26.40;47.80;25.40;101414.00;;;;5078582;28;20509;-71
2022/08/24 06:21:17;;;;;;;1.67;1.58;;;26.40;47.80;25.40;101419.00;;;;5086167;28;20116;-71
2022/08/24 06:24:05;;;;;;;2.00;1.80;;;26.40;47.90;25.40;101427.00;;;;5072428;28;20820;-71
2022/08/24 06:30:03;;;;;;;1.90;1.70;;;26.30;47.80;25.40;101417.00;;;;5086655;28;20040;-71
2022/08/24 06:32:49;;;;;;;2.72;1.95;;;26.40;47.90;25.40;101428.00;;;;5085195;28;20483;-71
2022/08/24 06:35:35;;;;;;;2.08;1.55;;;26.40;48.00;25.40;101433.00;;;;5091041;28;20036;-71
2022/08/24 06:38:21;;;;;;;2.45;1.70;;;26.40;48.00;25.40;101427.00;;;;5081111;28;20048;-71
2022/08/24 06:41:08;;;;;;;2.33;1.70;;;26.40;48.10;25.40;101429.00;;;;5092967;28;20226;-71
2022/08/24 06:43:54;;;;;;;3.60;1.77;;;26.40;48.10;25.40;101432.00;;;;5072411;28;20054;-71
2022/08/24 06:46:40;;;;;;;1.80;1.67;;;26.30;48.00;25.40;101439.00;;;;5072352;28;20043;-71
2022/08/24 06:49:26;;;;;;;2.08;1.73;;;26.40;48.10;25.40;101443.00;;;;5083086;28;20042;-71
2022/08/24 06:52:12;;;;;;;2.40;1.75;;;26.40;48.10;25.40;101446.00;;;;5078487;28;20066;-71
2022/08/24 06:54:58;;;;;;;3.30;1.58;;;26.50;48.20;25.40;101445.00;;;;5091774;28;20046;-71
2022/08/24 06:57:44;;;;;;;3.75;2.05;;;26.40;48.10;25.40;101440.00;;;;5080760;28;20052;-71
2022/08/24 07:00:31;;;;;;;1.77;1.63;;;26.50;48.20;25.40;101441.00;;;;5089332;28;20047;-71
2022/08/24 07:03:17;;;;;;;2.33;1.63;;;26.50;48.10;25.40;101441.00;;;;5087422;28;20453;-71
2022/08/24 07:06:03;;;;;;;1.80;1.63;;;26.50;48.10;25.40;101438.00;;;;5070936;28;20052;-71
2022/08/24 07:08:50;;;;;;;1.83;1.42;;;26.50;48.00;25.40;101447.00;;;;5076807;28;20040;-71
2022/08/24 07:11:36;;;;;;;2.97;1.70;;;26.50;48.00;25.40;101445.00;;;;5086082;28;20081;-71
2022/08/24 07:14:22;;;;;;;2.25;1.67;;;26.40;48.00;25.40;101452.00;;;;5086350;28;20049;-72
2022/08/24 07:17:08;;;;;;;2.10;1.60;;;26.50;48.10;25.40;101443.00;;;;5082162;28;20040;-71
2022/08/24 07:19:54;;;;;;;1.98;1.52;;;26.40;48.00;25.40;101445.00;;;;5082994;28;20127;-71
2022/08/24 07:22:40;;;;;;;1.60;1.50;;;26.50;48.10;25.40;101447.00;;;;5089712;28;20044;-71
2022/08/24 07:25:29;;;;;;;2.08;1.70;;;26.50;48.00;25.40;101455.00;;;;5092234;28;20080;-71
2022/08/24 07:28:15;;;;;;;2.10;1.52;;;26.50;48.00;25.40;101458.00;;;;5062751;28;20032;-71
2022/08/24 07:31:02;;;;;;;2.72;1.83;;;26.50;48.00;25.40;101453.00;;;;5076007;28;20039;-71
2022/08/24 07:33:48;;;;;;;2.07;1.57;;;26.40;47.90;25.40;101458.00;;;;5085569;28;20448;-71
2022/08/24 07:36:35;;;;;;;3.63;1.75;;;26.50;48.00;25.40;101456.00;;;;5096302;28;20342;-71
2022/08/24 07:39:21;;;;;;;2.20;1.67;;;26.50;48.00;25.40;101463.00;;;;5084733;28;20063;-71
2022/08/24 07:42:07;;;;;;;1.50;1.40;;;26.50;47.90;25.40;101464.00;;;;5087160;28;20046;-71
2022/08/24 07:44:53;;;;;;;3.85;1.70;;;26.50;47.90;25.40;101459.00;;;;5095697;28;20055;-71
2022/08/24 07:47:40;;;;;;;1.83;1.55;;;26.50;47.90;25.40;101465.00;;;;5081450;28;20041;-71
2022/08/24 07:50:26;;;;;;;3.80;1.83;;;26.50;47.90;25.40;101475.00;;;;5088703;28;20035;-71
2022/08/24 07:53:12;;;;;;;2.78;1.40;;;26.50;47.90;25.40;101468.00;;;;5074245;28;20047;-71
2022/08/24 07:55:58;;;;;;;1.63;1.45;;;26.50;47.90;25.40;101472.00;;;;5088359;28;20115;-71
2022/08/24 07:58:44;;;;;;;4.10;1.95;;;26.60;47.90;25.40;101470.00;;;;5085620;28;20039;-71
2022/08/24 08:01:30;;;;;;;2.70;1.67;;;26.50;47.90;25.40;101475.00;;;;5087710;28;20406;-71
2022/08/24 08:04:20;;;;;;;2.17;1.65;;;26.50;47.90;25.40;101478.00;;;;5074587;28;20039;-71
2022/08/24 08:07:06;;;;;;;1.95;1.45;;;26.50;47.90;25.40;101482.00;;;;5084366;28;20093;-71
2022/08/24 08:09:53;;;;;;;1.77;1.60;;;26.50;47.90;25.40;101482.00;;;;5086921;28;20519;-71
2022/08/24 08:12:39;;;;;;;1.92;1.58;;;26.50;47.80;25.40;101481.00;;;;5080716;28;20040;-71
2022/08/24 08:15:25;;;;;;;1.58;1.48;;;26.50;47.90;25.40;101477.00;;;;5060958;28;20037;-71
2022/08/24 08:18:11;;;;;;;1.42;1.33;;;26.50;47.90;25.40;101482.00;;;;5070746;28;20036;-71
2022/08/24 08:20:57;;;;;;;2.60;1.60;;;26.50;47.90;25.40;101486.00;;;;5069282;28;20489;-71
2022/08/24 08:26:51;;;;;;;2.97;1.40;;;26.50;47.90;25.40;101484.00;;;;5073144;28;20059;-71
2022/08/24 08:29:39;;;;;;;1.65;1.33;;;26.60;48.00;25.40;101485.00;;;;5086845;28;20037;-71
2022/08/24 08:32:25;;;;;;;2.05;1.38;;;26.60;48.00;25.40;101482.00;;;;5056472;28;20118;-71
2022/08/24 08:35:11;;;;;;;1.98;1.45;;;26.50;47.90;25.40;101486.00;;;;5070987;28;20044;-71
2022/08/24 08:37:58;;;;;;;1.75;1.40;;;26.50;48.00;25.40;101483.00;;;;5075600;28;20456;-71
2022/08/24 08:40:44;;;;;;;1.58;1.30;;;26.50;48.00;25.40;101484.00;;;;5063644;28;20131;-71
2022/08/24 08:44:00;;;;;;;1.83;1.60;;;26.60;48.00;25.40;101482.00;;;;5085488;28;20109;-71
2022/08/24 08:47:42;;;;;;;1.55;1.20;;;26.50;48.00;25.40;101485.00;;;;5052904;28;20493;-71
2022/08/24 08:51:25;;;;;;;1.80;1.33;;;26.50;48.00;25.40;101487.00;;;;5091161;28;20048;-71
2022/08/24 08:54:30;;;;;;;1.98;1.50;;;26.50;47.90;25.40;101483.00;;;;5083268;28;20039;-71
2022/08/24 08:57:42;;;;;;;1.58;1.48;;;26.50;48.00;25.40;101481.00;;;;5073919;28;20044;-71
2022/08/24 09:01:12;;;;;;;2.03;1.63;;;26.50;48.00;25.40;101469.00;;;;5076295;28;20047;-71
2022/08/24 09:04:09;;;;;;;2.92;1.30;;;26.40;48.70;25.40;101480.00;;;;5049446;28;20581;-71
2022/08/24 09:07:07;;;;;;;2.63;1.20;;;26.50;48.00;25.40;101487.00;;;;5076391;28;20105;-71
2022/08/24 09:10:21;;;;;;;3.03;1.70;;;26.50;48.00;25.40;101477.00;;;;5070483;28;20051;-71
2022/08/24 09:13:20;;;;;;;1.55;1.20;;;26.50;48.10;25.40;101483.00;;;;5069497;28;20044;-71
2022/08/24 09:16:34;;;;;;;1.50;1.40;;;26.50;48.10;25.40;101473.00;;;;5077661;28;20032;-71
2022/08/24 09:19:49;;;;;;;1.50;1.38;;;26.50;48.20;25.40;101483.00;;;;5086764;28;20051;-71
2022/08/24 09:22:39;;;;;;;1.95;1.40;;;26.50;48.20;25.40;101480.00;;;;5070200;28;20040;-71
2022/08/24 09:25:46;;;;;;;1.58;1.45;;;26.50;48.10;25.40;101479.00;;;;5086424;28;20036;-71
2022/08/24 09:29:07;;;;;;;2.53;1.60;;;26.50;48.20;25.40;101485.00;;;;5051805;28;20111;-71
2022/08/24 09:32:20;;;;;;;2.20;1.50;;;26.50;48.00;25.40;101488.00;;;;5077797;28;20055;-71
2022/08/24 09:35:13;;;;;;;3.50;1.70;;;26.50;48.00;25.40;101480.00;;;;5076958;28;20382;-71
2022/08/24 09:38:20;;;;;;;1.98;1.48;;;26.50;48.10;25.40;101478.00;;;;5068234;28;20040;-71
2022/08/24 09:41:27;;;;;;;2.28;1.50;;;26.50;48.00;25.40;101472.00;;;;5073321;28;20485;-71
2022/08/24 09:44:38;;;;;;;3.38;1.55;;;26.50;48.20;25.40;101477.00;;;;5073338;28;20040;-71
2022/08/24 09:47:34;;;;;;;3.47;1.65;;;26.50;48.00;25.40;101477.00;;;;5080611;28;20032;-71
2022/08/24 09:50:50;;;;;;;3.00;1.27;;;26.50;48.00;25.40;101471.00;;;;5072992;28;20039;-71
2022/08/24 09:54:18;;;;;;;2.30;1.48;;;26.50;48.00;25.40;101475.00;;;;5070627;28;20147;-71
2022/08/24 09:57:22;;;;;;;5.00;1.63;;;26.50;48.00;25.40;101474.00;;;;5085434;28;20043;-71
2022/08/24 10:00:20;;;;;;;3.03;1.50;;;26.50;48.00;25.40;101479.00;;;;5081054;28;20265;-71
2022/08/24 10:03:42;;;;;;;;;;;26.50;48.00;25.30;101478.00;;;;5067020;28;20067;-71
2022/08/24 10:07:17;;;;;;;1.30;1.02;;;26.50;48.00;25.40;101475.00;;;;5089220;28;20269;-71
2022/08/24 10:10:21;;;;;;;4.20;1.48;;;26.50;47.90;25.40;101474.00;;;;5076859;28;20334;-71
2022/08/24 10:13:33;;;;;;;2.33;1.40;;;26.50;48.00;25.40;101471.00;;;;5072925;28;20032;-71
2022/08/24 10:17:04;;;;;;;1.65;1.20;;;26.50;48.00;25.40;101464.00;;;;5065501;28;20109;-71
2022/08/24 10:20:14;;;;;;;1.65;1.17;;;26.50;48.00;25.40;101470.00;;;;5073175;28;20490;-71
2022/08/24 10:24:08;;;;;;;1.20;1.10;;;26.50;48.10;25.40;101465.00;;;;5070086;28;20100;-71
2022/08/24 10:27:17;;;;;;;1.50;1.40;;;26.50;48.00;25.40;101458.00;;;;5080210;28;20048;-73
2022/08/24 10:30:44;;;;;;;1.30;1.20;;;26.50;48.00;25.40;101455.00;;;;5053610;28;20032;-71
2022/08/24 10:33:58;;;;;;;2.10;1.40;;;26.50;48.00;25.40;101449.00;;;;5072841;28;20506;-72
2022/08/24 10:36:54;;;;;;;3.63;1.20;;;26.60;48.10;25.40;101458.00;;;;5088017;28;20075;-72
2022/08/24 10:40:13;;;;;;;2.22;2.03;;;26.50;48.00;25.40;101452.00;;;;5075996;28;20049;-72
2022/08/24 10:43:32;;;;;;;1.33;1.20;;;26.60;48.10;25.40;101452.00;;;;5075685;28;20047;-71
2022/08/24 10:46:38;;;;;;;3.75;1.60;;;26.50;48.00;25.40;101450.00;;;;5079315;28;20048;-71
2022/08/24 10:49:55;;;;;;;1.52;1.20;;;26.50;48.00;25.40;101445.00;;;;5073640;28;20036;-71
2022/08/24 10:52:57;;;;;;;2.13;1.27;;;26.60;48.00;25.40;101450.00;;;;5079859;28;20111;-72
2022/08/24 10:55:43;;;;;;;1.70;1.27;;;26.60;48.00;25.40;101454.00;;;;5079392;28;20561;-72
2022/08/24 10:59:13;;;;;;;2.45;1.27;;;26.60;48.00;25.40;101442.00;;;;5058439;28;20474;-71
2022/08/24 11:02:08;;;;;;;1.45;1.10;;;26.60;48.10;25.40;101444.00;;;;5077397;28;20036;-72
2022/08/24 11:05:00;;;;;;;2.28;1.30;;;26.60;48.10;25.40;101439.00;;;;5063985;28;20102;-72
2022/08/24 11:08:04;;;;;;;2.70;1.20;;;26.60;48.10;25.40;101438.00;;;;5083007;28;20062;-71
2022/08/24 11:11:13;;;;;;;1.90;1.25;;;26.60;47.90;25.40;101437.00;;;;5073649;28;20096;-71
2022/08/24 11:14:07;;;;;;;3.50;1.60;;;26.60;48.00;25.40;101432.00;;;;5073030;28;20478;-71
2022/08/24 11:16:53;;;;;;;4.47;1.50;;;26.60;47.90;25.50;101432.00;;;;5074962;28;20101;-71
2022/08/24 11:19:39;;;;;;;3.78;1.70;;;26.60;47.90;25.50;101431.00;;;;5072175;28;20070;-71
2022/08/24 11:22:40;;;;;;;1.67;1.35;;;26.60;47.90;25.50;101431.00;;;;5077007;28;20040;-71
2022/08/24 11:25:28;;;;;;;1.85;1.17;;;26.60;48.00;25.50;101431.00;;;;5063365;28;20067;-71
2022/08/24 11:28:39;;;;;;;3.35;1.45;;;26.60;47.90;25.50;101434.00;;;;5077194;28;20050;-71
2022/08/24 11:31:38;;;;;;;2.22;1.90;;;26.60;47.90;25.50;101423.00;;;;5075368;28;20464;-71
2022/08/24 11:34:36;;;;;;;4.32;1.38;;;26.60;48.50;25.50;101426.00;;;;5073547;28;20048;-71
2022/08/24 11:37:24;;;;;;;1.52;1.20;;;26.60;48.50;25.50;101433.00;;;;5074830;28;20035;-71
2022/08/24 11:40:10;;;;;;;2.83;1.48;;;26.60;47.80;25.50;101431.00;;;;5071555;28;20096;-71
2022/08/24 11:43:42;;;;;;;10.50;1.70;;;26.70;47.90;25.50;101424.00;;;;5090094;28;20073;-70
2022/08/24 11:46:40;;;;;;;6.90;1.58;;;26.60;47.90;25.50;101418.00;;;;5070171;28;20032;-71
2022/08/24 11:49:43;;;;;;;;;;;26.70;47.90;25.50;101425.00;;;;5068820;28;20087;-71
2022/08/24 11:52:51;;;;;;;2.47;1.35;;;26.70;47.90;25.50;101424.00;;;;5083117;28;19912;-71
2022/08/24 11:55:46;;;;;;;1.88;1.25;;;26.70;47.70;25.50;101416.00;;;;5074859;28;20409;-71
2022/08/24 11:58:45;;;;;;;2.13;1.27;;;26.70;47.70;25.50;101418.00;;;;5071451;28;20111;-71
2022/08/24 12:01:45;;;;;;;6.30;1.50;;;26.70;47.70;25.50;101407.00;;;;5077207;28;20062;-71
2022/08/24 12:04:56;;;;;;;3.65;1.40;;;26.70;47.80;25.50;101411.00;;;;5057965;28;20070;-71
2022/08/24 12:08:20;;;;;;;1.80;1.20;;;26.70;47.80;25.50;101410.00;;;;5068097;28;20136;-71
2022/08/24 12:11:57;;;;;;;4.05;1.48;;;26.70;47.80;25.50;101417.00;;;;5071466;28;20076;-71
2022/08/24 12:15:10;;;;;;;2.38;1.30;;;26.70;47.70;25.50;101415.00;;;;5078986;28;20040;-71
2022/08/24 12:18:04;;;;;;;1.27;1.17;;;26.70;47.80;25.50;101408.00;;;;5064279;28;20118;-71
2022/08/24 12:20:50;;;;;;;2.55;1.05;;;26.70;47.70;25.50;101407.00;;;;5061857;28;20048;-71
2022/08/24 12:23:42;;;;;;;2.30;1.13;;;26.70;47.70;25.50;101397.00;;;;5070409;28;20066;-71
2022/08/24 12:26:47;;;;;;;1.27;1.17;;;26.70;47.70;25.50;101400.00;;;;5070952;28;20453;-71
2022/08/24 12:30:07;;;;;;;1.90;1.27;;;26.70;47.70;25.50;101403.00;;;;5090108;28;20050;-71
2022/08/24 12:33:01;;;;;;;1.55;1.23;;;26.70;47.70;25.50;101399.00;;;;5081220;28;20114;-71
2022/08/24 12:35:52;;;;;;;1.88;1.40;;;26.70;47.60;25.60;101407.00;;;;5076994;28;20097;-71
2022/08/24 12:38:43;;;;;;;2.58;1.10;;;26.70;47.60;25.60;101411.00;;;;5076775;28;20048;-71
2022/08/24 12:41:37;;;;;;;1.05;1.00;;;26.70;47.60;25.60;101409.00;;;;5070661;28;20405;-71
2022/08/24 12:44:39;;;;;;;1.42;1.10;;;26.80;47.70;25.60;101409.00;;;;5077198;28;20035;-71
2022/08/24 12:47:41;;;;;;;1.52;1.20;;;26.70;47.70;25.60;101399.00;;;;5072953;28;20043;-71
2022/08/24 12:50:35;;;;;;;1.40;1.30;;;26.70;47.70;25.60;101406.00;;;;5063990;28;20040;-71